Time;durP1;ratioP1;P1;durP2;ratioP2;P2;SDS_P1;SDS_P2;PMS_P1;PMS_P2;Temp;Humidity;BMP_temperature;BMP_pressure;BME280_temperature;BME280_humidity;BME280_pressure;Samples;Min_cycle;Max_cycle;Signal;HPM_P1;HPM_P2
2023/07/30 00:01:12;;;;;;;4.30;2.23;;;17.80;99.90;;;;;;4986800;28;20537;-64
2023/07/30 00:03:42;;;;;;;4.07;2.70;;;17.70;99.90;;;;;;4985051;28;21047;-65
2023/07/30 00:06:10;;;;;;;2.87;2.57;;;17.60;99.90;;;;;;4970552;28;20447;-65
2023/07/30 00:08:38;;;;;;;13.93;3.57;;;17.60;99.90;;;;;;4977815;28;20435;-65
2023/07/30 00:11:06;;;;;;;4.53;2.63;;;17.50;99.90;;;;;;4985358;28;20479;-62
2023/07/30 00:13:34;;;;;;;8.50;2.80;;;17.40;99.90;;;;;;4984246;28;20471;-64
2023/07/30 00:16:02;;;;;;;4.83;3.07;;;17.40;99.90;;;;;;4985809;28;20442;-64
2023/07/30 00:18:30;;;;;;;12.27;4.17;;;17.40;99.90;;;;;;4985456;28;20831;-64
2023/07/30 00:20:59;;;;;;;10.77;3.03;;;17.50;99.90;;;;;;4985924;28;20539;-64
2023/07/30 00:23:27;;;;;;;16.77;4.87;;;17.60;99.90;;;;;;4985417;28;20909;-64
2023/07/30 00:25:55;;;;;;;5.13;2.97;;;17.50;99.90;;;;;;4987268;28;20526;-64
2023/07/30 00:28:23;;;;;;;4.97;2.83;;;17.50;99.90;;;;;;4983890;28;20454;-64
2023/07/30 00:30:51;;;;;;;4.37;2.60;;;17.50;99.90;;;;;;4970932;28;20917;-64
2023/07/30 00:33:19;;;;;;;2.50;2.13;;;17.50;99.90;;;;;;4969059;28;20468;-65
2023/07/30 00:35:47;;;;;;;2.30;2.10;;;17.50;99.90;;;;;;4970711;28;20450;-64
2023/07/30 00:38:18;;;;;;;2.27;1.90;;;17.50;99.90;;;;;;4981258;28;20453;-64
2023/07/30 00:40:46;;;;;;;4.10;1.97;;;17.50;99.90;;;;;;4973047;28;20479;-64
2023/07/30 00:43:14;;;;;;;2.80;2.20;;;17.60;99.90;;;;;;4968701;28;20463;-64
2023/07/30 00:45:44;;;;;;;5.00;2.53;;;17.50;99.90;;;;;;4970327;28;20450;-64
2023/07/30 00:48:14;;;;;;;3.00;2.70;;;17.60;99.90;;;;;;4970192;28;20542;-64
2023/07/30 00:50:43;;;;;;;3.33;1.97;;;17.50;99.90;;;;;;4970626;28;20474;-64
2023/07/30 00:53:14;;;;;;;4.43;2.43;;;17.50;99.90;;;;;;4968588;28;20467;-64
2023/07/30 00:55:43;;;;;;;2.60;2.00;;;17.50;99.90;;;;;;4970771;28;20451;-64
2023/07/30 00:58:12;;;;;;;3.83;2.40;;;17.50;99.90;;;;;;4969775;28;20879;-64
2023/07/30 01:00:41;;;;;;;4.23;2.17;;;17.50;99.90;;;;;;4970485;28;20483;-64
2023/07/30 01:03:09;;;;;;;2.87;2.40;;;17.60;99.90;;;;;;4969141;28;20550;-64
2023/07/30 01:05:37;;;;;;;2.40;2.07;;;17.60;99.90;;;;;;4970233;28;20459;-64
2023/07/30 01:08:05;;;;;;;3.97;2.33;;;17.60;99.90;;;;;;4982479;28;20450;-65
2023/07/30 01:10:34;;;;;;;5.87;2.30;;;17.60;99.90;;;;;;4981356;28;20446;-64
2023/07/30 01:13:05;;;;;;;2.20;2.00;;;17.50;99.90;;;;;;4973399;28;20565;-65
2023/07/30 01:15:33;;;;;;;3.73;2.07;;;17.50;99.90;;;;;;4972083;28;20538;-65
2023/07/30 01:18:01;;;;;;;3.20;2.00;;;17.50;99.90;;;;;;4971029;28;20494;-65
2023/07/30 01:20:31;;;;;;;2.60;2.30;;;17.40;99.90;;;;;;4972719;28;20558;-65
2023/07/30 01:23:01;;;;;;;5.80;1.83;;;17.30;99.90;;;;;;4970960;28;20856;-65
2023/07/30 01:25:31;;;;;;;2.33;2.13;;;17.40;99.90;;;;;;4972451;28;20459;-65
2023/07/30 01:28:02;;;;;;;1.70;1.53;;;17.50;99.90;;;;;;4972552;28;20451;-65
2023/07/30 01:30:33;;;;;;;2.63;1.60;;;17.60;99.90;;;;;;4972387;28;20439;-65
2023/07/30 01:33:02;;;;;;;2.77;1.70;;;17.50;99.90;;;;;;4970948;28;21001;-65
2023/07/30 01:35:31;;;;;;;3.57;2.10;;;17.50;99.90;;;;;;4972510;28;20519;-65
2023/07/30 01:38:05;;;;;;;3.30;2.20;;;17.50;99.90;;;;;;4971287;28;20460;-65
2023/07/30 01:40:33;;;;;;;2.07;1.70;;;17.50;99.90;;;;;;4971993;28;20542;-65
2023/07/30 01:43:01;;;;;;;54.20;8.87;;;17.40;99.90;;;;;;4971241;28;20467;-65
2023/07/30 01:45:29;;;;;;;3.00;2.10;;;17.40;99.90;;;;;;4973448;28;20452;-65
2023/07/30 01:47:57;;;;;;;3.30;2.90;;;17.30;99.90;;;;;;4971960;28;20890;-65
2023/07/30 01:50:25;;;;;;;2.97;2.03;;;17.40;99.90;;;;;;4973488;28;20440;-65
2023/07/30 01:52:53;;;;;;;4.20;2.17;;;17.50;99.90;;;;;;4989543;28;20495;-64
2023/07/30 01:55:23;;;;;;;2.37;1.60;;;17.50;99.90;;;;;;4990845;28;20451;-64
2023/07/30 01:57:50;;;;;;;9.07;2.37;;;17.50;99.90;;;;;;4991245;28;20475;-64
2023/07/30 02:00:19;;;;;;;3.43;2.27;;;17.50;99.90;;;;;;4991234;28;20879;-65
2023/07/30 02:02:47;;;;;;;3.50;2.20;;;17.40;99.90;;;;;;4989584;28;20463;-64
2023/07/30 02:05:15;;;;;;;3.10;2.70;;;17.30;99.90;;;;;;4983298;28;20447;-65
2023/07/30 02:07:43;;;;;;;2.97;2.67;;;17.30;99.90;;;;;;4971794;28;20502;-64
2023/07/30 02:10:11;;;;;;;2.63;2.30;;;17.30;99.90;;;;;;4971682;28;20444;-65
2023/07/30 02:12:40;;;;;;;2.60;2.40;;;17.30;99.90;;;;;;4970367;28;20503;-65
2023/07/30 02:15:09;;;;;;;53.13;9.60;;;17.30;99.90;;;;;;4970881;28;20532;-65
2023/07/30 02:17:37;;;;;;;60.20;11.00;;;17.50;99.90;;;;;;4972389;28;20547;-65
2023/07/30 02:20:06;;;;;;;3.43;3.10;;;17.50;99.90;;;;;;4971668;28;21001;-64
2023/07/30 02:22:34;;;;;;;3.80;3.50;;;17.50;99.90;;;;;;4970801;28;20522;-65
2023/07/30 02:25:02;;;;;;;16.63;4.87;;;17.60;99.90;;;;;;4971510;28;20444;-65
2023/07/30 02:27:30;;;;;;;4.20;2.83;;;17.50;99.90;;;;;;4971402;28;20448;-65
2023/07/30 02:30:00;;;;;;;4.60;3.47;;;17.60;99.90;;;;;;4971420;28;20814;-65
2023/07/30 02:32:28;;;;;;;6.30;2.53;;;17.60;99.90;;;;;;4970472;28;20479;-64
2023/07/30 02:34:56;;;;;;;4.33;2.80;;;17.70;99.90;;;;;;4982342;28;20874;-65
2023/07/30 02:37:24;;;;;;;90.23;12.07;;;17.70;99.90;;;;;;4989976;28;20517;-65
2023/07/30 02:39:52;;;;;;;5.10;3.20;;;17.60;99.90;;;;;;4988105;28;20533;-65
2023/07/30 02:42:20;;;;;;;49.40;9.57;;;17.60;99.90;;;;;;4989633;28;20447;-65
2023/07/30 02:44:48;;;;;;;4.20;2.43;;;17.50;99.90;;;;;;4989957;28;20501;-64
2023/07/30 02:47:17;;;;;;;5.80;3.10;;;17.50;99.90;;;;;;4990565;28;20454;-65
2023/07/30 02:49:45;;;;;;;5.07;3.43;;;17.50;99.90;;;;;;4989734;28;20937;-65
2023/07/30 02:52:13;;;;;;;5.20;3.10;;;17.60;99.90;;;;;;4990411;28;20447;-64
2023/07/30 02:54:41;;;;;;;3.20;2.80;;;17.50;99.90;;;;;;4986997;28;20544;-65
2023/07/30 02:57:10;;;;;;;3.30;3.00;;;17.50;99.90;;;;;;4971079;28;20938;-63
2023/07/30 02:59:38;;;;;;;3.80;3.40;;;17.60;99.90;;;;;;4971289;28;20444;-64
2023/07/30 03:02:06;;;;;;;4.40;3.20;;;17.70;99.90;;;;;;4970560;28;21191;-64
2023/07/30 03:04:36;;;;;;;3.13;2.93;;;17.60;99.90;;;;;;4970498;28;20472;-65
2023/07/30 03:07:04;;;;;;;4.27;3.10;;;17.50;99.90;;;;;;4970993;28;20439;-65
2023/07/30 03:09:32;;;;;;;3.20;2.97;;;17.50;99.90;;;;;;4971439;28;20454;-64
2023/07/30 03:12:00;;;;;;;3.60;3.27;;;17.50;99.90;;;;;;4980560;28;20876;-64
2023/07/30 03:14:28;;;;;;;4.10;3.23;;;17.40;99.90;;;;;;4989182;28;20466;-65
2023/07/30 03:16:56;;;;;;;8.90;4.50;;;17.30;99.90;;;;;;4990317;28;20474;-65
2023/07/30 03:19:24;;;;;;;4.70;3.93;;;17.30;99.90;;;;;;4990123;28;20451;-65
2023/07/30 03:21:53;;;;;;;5.53;3.73;;;17.20;99.90;;;;;;4990195;28;20474;-64
2023/07/30 03:24:21;;;;;;;11.50;5.37;;;17.40;99.90;;;;;;4988745;28;20474;-64
2023/07/30 03:26:49;;;;;;;45.57;8.50;;;17.30;99.90;;;;;;4990281;28;20478;-65
2023/07/30 03:29:17;;;;;;;38.73;6.97;;;17.20;99.90;;;;;;4971552;28;20455;-65
2023/07/30 03:31:45;;;;;;;5.40;4.90;;;17.20;99.90;;;;;;4970892;28;20830;-65
2023/07/30 03:34:13;;;;;;;6.23;4.93;;;17.20;99.90;;;;;;4969569;28;20467;-65
2023/07/30 03:36:41;;;;;;;13.07;5.97;;;17.20;99.90;;;;;;4970517;28;20447;-65
2023/07/30 03:39:10;;;;;;;5.90;5.30;;;17.30;99.90;;;;;;4970983;28;20498;-65
2023/07/30 03:41:38;;;;;;;25.03;7.77;;;17.30;99.90;;;;;;4970800;28;20926;-65
2023/07/30 03:44:07;;;;;;;5.83;5.13;;;17.40;99.90;;;;;;4970744;28;20499;-65
2023/07/30 03:46:34;;;;;;;6.50;4.70;;;17.40;99.90;;;;;;4970677;28;20451;-64
2023/07/30 03:49:02;;;;;;;5.93;4.30;;;17.50;99.90;;;;;;4970771;28;20443;-65
2023/07/30 03:51:30;;;;;;;6.27;4.27;;;17.50;99.90;;;;;;4980996;28;20439;-65
2023/07/30 03:53:58;;;;;;;4.43;3.37;;;17.60;99.90;;;;;;4988944;28;20465;-62
2023/07/30 03:56:28;;;;;;;4.27;3.53;;;17.60;99.90;;;;;;4990380;28;20454;-64
2023/07/30 03:58:56;;;;;;;4.00;3.70;;;17.70;99.90;;;;;;4990298;28;20681;-64
2023/07/30 04:01:24;;;;;;;5.07;4.63;;;17.70;99.90;;;;;;4992209;28;20537;-64
2023/07/30 04:03:52;;;;;;;8.83;4.60;;;17.70;99.90;;;;;;4992236;28;20973;-64
2023/07/30 04:06:20;;;;;;;6.17;3.90;;;17.80;99.90;;;;;;4977580;28;20845;-64
2023/07/30 04:08:48;;;;;;;5.17;4.10;;;17.80;99.90;;;;;;4974189;28;20903;-64
2023/07/30 04:11:16;;;;;;;5.63;4.63;;;17.70;99.90;;;;;;4974340;28;20447;-64
2023/07/30 04:13:45;;;;;;;11.03;6.10;;;17.70;99.90;;;;;;4972793;28;20507;-64
2023/07/30 04:16:13;;;;;;;4.60;4.10;;;17.80;99.90;;;;;;4983669;28;20541;-64
2023/07/30 04:18:41;;;;;;;5.77;5.13;;;17.80;99.90;;;;;;4992683;28;20454;-64
2023/07/30 04:21:10;;;;;;;6.33;4.80;;;17.90;99.90;;;;;;4992471;28;20577;-64
2023/07/30 04:23:38;;;;;;;12.30;5.17;;;18.00;99.90;;;;;;4990861;28;20877;-64
2023/07/30 04:26:06;;;;;;;9.20;4.77;;;17.90;99.90;;;;;;4992715;28;20474;-65
2023/07/30 04:28:34;;;;;;;4.90;4.40;;;18.00;99.90;;;;;;4993101;28;20453;-64
2023/07/30 04:31:03;;;;;;;4.37;4.07;;;18.00;99.90;;;;;;4976656;28;20439;-65
2023/07/30 04:33:31;;;;;;;6.50;4.80;;;17.90;99.90;;;;;;4972113;28;20834;-64
2023/07/30 04:35:59;;;;;;;5.50;4.70;;;17.80;99.90;;;;;;4973182;28;20886;-64
2023/07/30 04:38:27;;;;;;;7.73;4.37;;;17.90;99.90;;;;;;4972741;28;20454;-65
2023/07/30 04:40:58;;;;;;;5.30;3.67;;;17.80;99.90;;;;;;4973280;28;20511;-64
2023/07/30 04:43:26;;;;;;;6.10;3.70;;;17.80;99.90;;;;;;4971846;28;20545;-64
2023/07/30 04:45:54;;;;;;;4.63;3.70;;;17.90;99.90;;;;;;4974960;28;20526;-64
2023/07/30 04:48:23;;;;;;;4.27;3.87;;;17.90;99.90;;;;;;4972400;28;20978;-65
2023/07/30 04:50:51;;;;;;;5.63;5.03;;;17.90;99.90;;;;;;4973602;28;20469;-64
2023/07/30 04:53:20;;;;;;;8.73;5.30;;;17.90;99.90;;;;;;4972254;28;20464;-65
2023/07/30 04:55:48;;;;;;;5.27;4.60;;;17.90;99.90;;;;;;4973030;28;21016;-63
2023/07/30 04:58:16;;;;;;;7.60;4.53;;;18.00;99.90;;;;;;4973761;28;20470;-65
2023/07/30 05:00:45;;;;;;;5.00;4.50;;;18.00;99.90;;;;;;4973844;28;20826;-66
2023/07/30 05:03:12;;;;;;;4.37;4.07;;;18.10;99.90;;;;;;4982362;28;20483;-64
2023/07/30 05:05:42;;;;;;;13.43;4.70;;;18.10;99.90;;;;;;4992838;28;20442;-63
2023/07/30 05:08:10;;;;;;;4.33;3.93;;;18.20;99.90;;;;;;4993083;28;20449;-64
2023/07/30 05:10:38;;;;;;;4.83;4.30;;;18.20;99.90;;;;;;4978591;28;20495;-65
2023/07/30 05:13:06;;;;;;;4.67;4.27;;;18.20;99.90;;;;;;4971239;28;20562;-65
2023/07/30 05:15:34;;;;;;;4.33;3.93;;;18.20;99.90;;;;;;4973289;28;20956;-65
2023/07/30 05:18:02;;;;;;;5.43;4.60;;;18.10;99.90;;;;;;4972943;28;20781;-64
2023/07/30 05:20:30;;;;;;;5.03;3.40;;;18.10;99.90;;;;;;4989639;28;20515;-65
2023/07/30 05:22:59;;;;;;;4.17;3.40;;;18.10;99.90;;;;;;4991218;28;20566;-64
2023/07/30 05:25:27;;;;;;;3.93;3.63;;;18.00;99.90;;;;;;4992548;28;20533;-65
2023/07/30 05:27:55;;;;;;;5.60;3.50;;;18.00;99.90;;;;;;4992319;28;20446;-65
2023/07/30 05:30:23;;;;;;;5.20;3.50;;;18.00;99.90;;;;;;4992219;28;20449;-65
2023/07/30 05:32:51;;;;;;;5.70;3.60;;;17.90;99.90;;;;;;4990991;28;21099;-65
2023/07/30 05:35:19;;;;;;;4.53;3.67;;;18.00;99.90;;;;;;4990244;28;20451;-65
2023/07/30 05:37:47;;;;;;;5.53;3.47;;;18.00;99.90;;;;;;4992302;28;20446;-65
2023/07/30 05:40:16;;;;;;;4.33;3.47;;;17.90;99.90;;;;;;4991962;28;20439;-65
2023/07/30 05:42:44;;;;;;;3.27;2.97;;;18.00;99.90;;;;;;4990776;28;21015;-65
2023/07/30 05:45:13;;;;;;;4.80;2.37;;;17.90;99.90;;;;;;4991988;28;20474;-65
2023/07/30 05:47:41;;;;;;;2.67;2.30;;;17.90;99.90;;;;;;4991820;28;20450;-66
2023/07/30 05:50:09;;;;;;;4.80;2.40;;;17.90;99.90;;;;;;4992265;28;20454;-65
2023/07/30 05:52:37;;;;;;;3.30;2.80;;;17.90;99.90;;;;;;4989159;28;20926;-66
2023/07/30 05:55:06;;;;;;;3.10;2.00;;;17.90;99.90;;;;;;4991325;28;20991;-65
2023/07/30 05:57:35;;;;;;;2.80;2.53;;;17.90;99.90;;;;;;4991531;28;20439;-66
2023/07/30 06:00:04;;;;;;;2.20;2.00;;;17.90;99.90;;;;;;4991705;28;20438;-65
2023/07/30 06:02:32;;;;;;;2.57;2.37;;;17.90;99.90;;;;;;4990021;28;20470;-65
2023/07/30 06:05:00;;;;;;;2.90;2.70;;;17.90;99.90;;;;;;4991464;28;20441;-65
2023/07/30 06:07:28;;;;;;;2.57;1.87;;;18.00;99.90;;;;;;4982695;28;20480;-65
2023/07/30 06:09:56;;;;;;;1.90;1.80;;;18.10;99.90;;;;;;4971904;28;20486;-65
2023/07/30 06:12:24;;;;;;;2.57;2.00;;;18.10;99.90;;;;;;4970962;28;20457;-64
2023/07/30 06:14:53;;;;;;;2.33;2.13;;;18.20;99.90;;;;;;4971540;28;20494;-64
2023/07/30 06:17:21;;;;;;;2.30;1.83;;;18.20;99.90;;;;;;4972345;28;20817;-65
2023/07/30 06:19:49;;;;;;;4.37;2.27;;;18.20;99.90;;;;;;4972434;28;20448;-64
2023/07/30 06:22:17;;;;;;;1.90;1.80;;;18.40;99.90;;;;;;4986639;28;20566;-64
2023/07/30 06:24:45;;;;;;;2.70;1.93;;;18.60;99.90;;;;;;4990077;28;20462;-65
2023/07/30 06:27:13;;;;;;;3.53;2.07;;;18.70;99.90;;;;;;4991440;28;20473;-65
2023/07/30 06:29:41;;;;;;;2.00;1.70;;;18.80;99.90;;;;;;4991813;28;20541;-65
2023/07/30 06:32:10;;;;;;;2.23;2.03;;;18.90;99.90;;;;;;4991147;28;20493;-65
2023/07/30 06:34:38;;;;;;;3.40;2.77;;;18.80;99.90;;;;;;4989056;28;20466;-64
2023/07/30 06:37:06;;;;;;;5.53;2.20;;;18.80;99.90;;;;;;4971296;28;20547;-65
2023/07/30 06:39:34;;;;;;;2.53;2.10;;;18.80;99.90;;;;;;4971711;28;20865;-65
2023/07/30 06:42:02;;;;;;;2.43;2.23;;;18.80;99.90;;;;;;4971074;28;21209;-64
2023/07/30 06:44:30;;;;;;;3.73;2.30;;;18.70;99.90;;;;;;4970581;28;20548;-64
2023/07/30 06:46:58;;;;;;;2.30;2.10;;;18.70;99.90;;;;;;4971622;28;20899;-64
2023/07/30 06:49:28;;;;;;;2.17;1.97;;;18.80;99.90;;;;;;4978249;28;20454;-63
2023/07/30 06:51:56;;;;;;;5.47;2.37;;;19.10;99.90;;;;;;4990869;28;20478;-64
2023/07/30 06:54:24;;;;;;;2.90;2.60;;;19.20;99.90;;;;;;4989167;28;20469;-64
2023/07/30 06:56:52;;;;;;;2.97;2.63;;;19.50;99.90;;;;;;4990863;28;20450;-65
2023/07/30 06:59:20;;;;;;;5.20;2.60;;;19.70;99.90;;;;;;4990915;28;20470;-65
2023/07/30 07:01:48;;;;;;;3.93;2.73;;;19.90;99.90;;;;;;4990872;28;20447;-65
2023/07/30 07:04:15;;;;;;;3.40;3.10;;;20.10;99.90;;;;;;4975960;28;20839;-65
2023/07/30 07:06:45;;;;;;;4.43;2.80;;;20.30;99.90;;;;;;4971306;28;20439;-65
2023/07/30 07:09:13;;;;;;;3.23;2.90;;;20.20;99.90;;;;;;4971378;28;20819;-65
2023/07/30 07:11:41;;;;;;;3.47;2.70;;;20.20;99.90;;;;;;4971029;28;20503;-65
2023/07/30 07:14:09;;;;;;;3.17;2.73;;;20.20;99.90;;;;;;4970065;28;20470;-64
2023/07/30 07:16:36;;;;;;;2.97;2.77;;;20.20;99.90;;;;;;4970943;28;20443;-65
2023/07/30 07:19:05;;;;;;;3.53;3.23;;;20.10;99.90;;;;;;4970992;28;20958;-64
2023/07/30 07:21:33;;;;;;;2.80;2.60;;;20.00;99.90;;;;;;4971005;28;20447;-65
2023/07/30 07:24:02;;;;;;;3.10;2.90;;;20.00;99.90;;;;;;4969593;28;20486;-64
2023/07/30 07:26:30;;;;;;;2.90;2.70;;;20.00;99.90;;;;;;4971028;28;20443;-64
2023/07/30 07:28:58;;;;;;;4.50;3.30;;;19.90;99.90;;;;;;4970848;28;20455;-64
2023/07/30 07:31:27;;;;;;;3.00;2.80;;;19.80;99.90;;;;;;4976776;28;20451;-64
2023/07/30 07:33:55;;;;;;;4.00;3.57;;;19.80;99.90;;;;;;4988836;28;20466;-64
2023/07/30 07:36:23;;;;;;;2.87;2.67;;;19.70;99.90;;;;;;4992655;28;20497;-64
2023/07/30 07:38:51;;;;;;;4.00;3.13;;;19.70;99.90;;;;;;4994463;28;20450;-64
2023/07/30 07:41:20;;;;;;;4.33;3.20;;;19.60;99.90;;;;;;4994074;28;20446;-64
2023/07/30 07:43:49;;;;;;;3.40;3.20;;;19.50;99.90;;;;;;4992817;28;20596;-64
2023/07/30 07:46:17;;;;;;;4.57;4.17;;;19.30;99.90;;;;;;4974356;28;20464;-64
2023/07/30 07:48:45;;;;;;;2.93;2.70;;;19.20;99.90;;;;;;4974540;28;20447;-64
2023/07/30 07:51:13;;;;;;;2.90;2.20;;;19.10;99.90;;;;;;4981681;28;21154;-64
2023/07/30 07:53:41;;;;;;;2.40;2.20;;;18.80;99.90;;;;;;4992521;28;20466;-64
2023/07/30 07:56:09;;;;;;;2.27;2.07;;;18.60;99.90;;;;;;4993638;28;20522;-64
2023/07/30 07:58:39;;;;;;;2.53;2.30;;;18.40;99.90;;;;;;4993654;28;20450;-65
2023/07/30 08:01:07;;;;;;;2.33;2.03;;;18.30;99.90;;;;;;4993451;28;20524;-64
2023/07/30 08:03:35;;;;;;;2.40;2.20;;;18.50;99.90;;;;;;4993392;28;20276;-64
2023/07/30 08:06:03;;;;;;;2.90;2.63;;;18.60;99.90;;;;;;4980370;28;20447;-64
2023/07/30 08:08:31;;;;;;;4.30;2.73;;;18.80;99.90;;;;;;4974100;28;20451;-65
2023/07/30 08:10:59;;;;;;;4.40;2.60;;;19.10;99.90;;;;;;4973917;28;20875;-66
2023/07/30 08:13:27;;;;;;;2.30;2.10;;;19.50;99.90;;;;;;4972495;28;20482;-64
2023/07/30 08:15:56;;;;;;;3.53;2.50;;;19.70;99.90;;;;;;4973958;28;20963;-65
2023/07/30 08:18:24;;;;;;;3.37;2.30;;;19.90;99.90;;;;;;4974271;28;21100;-64
2023/07/30 08:20:52;;;;;;;4.03;2.47;;;20.10;99.90;;;;;;4974030;28;20592;-64
2023/07/30 08:23:20;;;;;;;2.30;2.10;;;20.20;99.90;;;;;;4972626;28;20527;-64
2023/07/30 08:25:49;;;;;;;2.40;2.20;;;20.30;99.90;;;;;;4973844;28;20454;-65
2023/07/30 08:28:17;;;;;;;2.80;2.00;;;20.50;99.90;;;;;;4973786;28;20477;-66
2023/07/30 08:30:46;;;;;;;2.00;1.87;;;20.70;99.90;;;;;;4973770;28;20942;-65
2023/07/30 08:33:15;;;;;;;2.20;2.00;;;21.00;99.90;;;;;;4978988;28;20463;-62
2023/07/30 08:35:43;;;;;;;3.40;2.07;;;21.30;99.90;;;;;;4988557;28;20478;-64
2023/07/30 08:38:11;;;;;;;2.67;2.03;;;21.60;99.90;;;;;;4989180;28;21061;-63
2023/07/30 08:40:39;;;;;;;2.63;2.10;;;22.00;99.90;;;;;;4992207;28;20805;-61
2023/07/30 08:43:07;;;;;;;2.20;1.80;;;22.30;99.90;;;;;;4988588;28;20509;-64
2023/07/30 08:45:35;;;;;;;2.33;1.60;;;22.40;99.90;;;;;;4985192;28;20463;-65
2023/07/30 08:48:04;;;;;;;2.10;1.83;;;22.20;99.90;;;;;;4994237;28;20450;-64
2023/07/30 08:50:34;;;;;;;2.50;1.53;;;22.00;99.90;;;;;;4995902;28;20531;-64
2023/07/30 08:53:04;;;;;;;2.23;2.00;;;22.00;99.90;;;;;;4988857;28;20470;-64
2023/07/30 08:55:34;;;;;;;2.33;2.13;;;21.70;99.90;;;;;;4984354;28;20452;-64
2023/07/30 08:58:04;;;;;;;3.70;2.40;;;21.30;99.90;;;;;;4979867;28;20445;-65
2023/07/30 09:00:37;;;;;;;2.67;2.47;;;21.00;99.90;;;;;;4997611;28;20553;-65
2023/07/30 09:03:07;;;;;;;1.80;1.70;;;21.00;99.90;;;;;;4974763;28;20489;-65
2023/07/30 09:05:37;;;;;;;2.70;2.50;;;20.90;99.90;;;;;;4996713;28;20461;-64
2023/07/30 09:08:06;;;;;;;2.30;2.10;;;20.80;99.90;;;;;;4986151;28;20444;-65
2023/07/30 09:10:35;;;;;;;2.27;2.10;;;20.90;99.90;;;;;;4974215;28;20455;-65
2023/07/30 09:13:03;;;;;;;2.37;2.20;;;20.90;99.90;;;;;;4988238;28;20539;-64
2023/07/30 09:15:33;;;;;;;2.07;1.97;;;21.10;99.90;;;;;;4995405;28;20451;-64
2023/07/30 09:18:01;;;;;;;4.53;2.33;;;21.30;99.90;;;;;;4978150;28;20459;-63
2023/07/30 09:20:39;;;;;;;2.23;2.03;;;21.60;99.90;;;;;;4987648;28;20537;-64
2023/07/30 09:23:08;;;;;;;2.00;1.53;;;21.70;99.90;;;;;;4984404;28;20525;-64
2023/07/30 09:25:36;;;;;;;2.00;1.90;;;21.50;99.90;;;;;;4994081;28;20995;-64
2023/07/30 09:28:05;;;;;;;2.13;1.70;;;21.10;99.90;;;;;;5005594;28;20458;-64
2023/07/30 09:30:34;;;;;;;2.87;2.63;;;20.80;99.90;;;;;;5009837;28;20511;-65
2023/07/30 09:33:02;;;;;;;4.20;2.27;;;20.80;99.90;;;;;;5009048;28;20996;-63
2023/07/30 09:35:34;;;;;;;2.27;1.70;;;21.00;99.90;;;;;;5001965;28;20482;-64
2023/07/30 09:38:04;;;;;;;2.63;2.43;;;21.30;99.90;;;;;;4981848;28;20438;-63
2023/07/30 09:40:33;;;;;;;2.90;1.70;;;21.40;99.90;;;;;;4989515;28;20860;-63
2023/07/30 09:43:03;;;;;;;2.97;1.80;;;21.40;99.90;;;;;;4984443;28;20558;-63
2023/07/30 09:45:35;;;;;;;2.43;1.80;;;21.30;99.90;;;;;;4970852;28;20487;-64
2023/07/30 09:48:05;;;;;;;3.33;2.27;;;21.30;99.90;;;;;;4971045;28;20508;-63
2023/07/30 09:50:34;;;;;;;2.33;2.13;;;21.40;99.90;;;;;;4971509;28;20452;-64
2023/07/30 09:53:04;;;;;;;2.30;2.10;;;21.70;99.90;;;;;;4969663;28;20894;-63
2023/07/30 09:55:33;;;;;;;3.43;2.70;;;21.80;99.90;;;;;;4972101;28;20460;-63
2023/07/30 09:58:01;;;;;;;3.73;2.30;;;21.60;99.90;;;;;;4970970;28;20455;-63
2023/07/30 10:00:30;;;;;;;2.77;1.70;;;21.40;99.90;;;;;;4969714;28;20454;-64
2023/07/30 10:03:00;;;;;;;2.33;2.13;;;21.40;99.90;;;;;;4969758;28;20498;-64
2023/07/30 10:05:33;;;;;;;2.23;2.03;;;21.40;99.90;;;;;;4978008;28;20483;-63
2023/07/30 10:08:08;;;;;;;2.00;1.90;;;21.80;99.90;;;;;;4973257;28;20443;-64
2023/07/30 10:10:36;;;;;;;2.37;1.90;;;22.30;99.90;;;;;;4989661;28;20443;-63
2023/07/30 10:13:07;;;;;;;2.20;2.00;;;22.10;99.90;;;;;;4992253;28;20537;-64
2023/07/30 10:15:35;;;;;;;6.03;2.47;;;22.20;99.90;;;;;;4989148;28;20474;-64
2023/07/30 10:18:04;;;;;;;4.10;1.90;;;22.50;99.90;;;;;;4990008;28;20443;-64
2023/07/30 10:20:32;;;;;;;2.70;1.97;;;22.60;99.90;;;;;;4972193;28;20506;-63
2023/07/30 10:23:01;;;;;;;6.53;2.87;;;22.90;99.90;;;;;;4969214;28;20528;-64
2023/07/30 10:25:42;;;;;;;4.67;2.60;;;22.90;99.90;;;;;;4969350;28;20483;-62
2023/07/30 10:28:26;;;;;;;3.00;2.60;;;23.10;99.90;;;;;;4970238;28;20965;-63
2023/07/30 10:30:57;;;;;;;2.40;1.90;;;23.00;99.90;;;;;;4969912;28;20451;-64
2023/07/30 10:33:44;;;;;;;2.90;2.50;;;23.00;99.90;;;;;;4975756;28;20495;-63
2023/07/30 10:36:12;;;;;;;3.30;2.33;;;22.90;99.90;;;;;;4989140;28;20451;-63
2023/07/30 10:38:41;;;;;;;3.90;3.00;;;23.00;99.90;;;;;;4980558;28;20446;-63
2023/07/30 10:41:13;;;;;;;3.10;2.80;;;22.90;99.90;;;;;;4989157;28;20493;-64
2023/07/30 10:43:43;;;;;;;1.63;1.53;;;23.00;99.90;;;;;;4988441;28;20866;-64
2023/07/30 10:46:13;;;;;;;3.77;2.50;;;23.10;99.90;;;;;;4989389;28;20483;-63
2023/07/30 10:48:42;;;;;;;3.00;2.20;;;22.80;99.90;;;;;;4971453;28;20452;-64
2023/07/30 10:51:12;;;;;;;2.10;2.00;;;22.60;99.90;;;;;;4969107;28;20443;-64
2023/07/30 10:53:43;;;;;;;2.30;2.10;;;22.70;99.90;;;;;;4968149;28;20546;-64
2023/07/30 10:56:13;;;;;;;3.27;2.27;;;22.80;99.90;;;;;;4969648;28;20443;-63
2023/07/30 10:58:43;;;;;;;3.83;2.10;;;23.00;99.90;;;;;;4969126;28;20506;-65
2023/07/30 11:01:11;;;;;;;3.90;2.60;;;23.30;99.90;;;;;;4973724;28;20443;-64
2023/07/30 11:03:39;;;;;;;3.40;2.40;;;23.10;99.90;;;;;;4987484;28;20528;-63
2023/07/30 11:06:08;;;;;;;2.77;2.43;;;22.80;99.90;;;;;;4988622;28;20502;-63
2023/07/30 11:08:38;;;;;;;2.87;2.40;;;23.40;99.90;;;;;;4979898;28;20469;-64
2023/07/30 11:11:08;;;;;;;5.30;2.50;;;24.00;99.60;;;;;;4988304;28;20605;-64
2023/07/30 11:13:38;;;;;;;2.80;2.10;;;23.50;99.60;;;;;;4986888;28;20481;-63
2023/07/30 11:16:07;;;;;;;4.30;2.40;;;22.90;99.90;;;;;;4976708;28;20448;-64
2023/07/30 11:18:36;;;;;;;1.90;1.80;;;23.00;99.90;;;;;;4969168;28;21017;-64
2023/07/30 11:21:05;;;;;;;2.93;2.63;;;22.90;99.90;;;;;;4969125;28;20460;-64
2023/07/30 11:23:34;;;;;;;4.30;2.70;;;22.50;99.90;;;;;;4968221;28;20566;-63
2023/07/30 11:26:03;;;;;;;2.40;2.20;;;22.60;99.90;;;;;;4986881;28;20485;-63
2023/07/30 11:28:33;;;;;;;4.27;2.10;;;22.40;99.90;;;;;;4988031;28;20545;-63
2023/07/30 11:31:08;;;;;;;2.87;2.20;;;21.90;99.90;;;;;;4987234;28;20454;-64
2023/07/30 11:33:36;;;;;;;1.90;1.60;;;21.60;99.90;;;;;;4991326;28;20477;-63
2023/07/30 11:36:06;;;;;;;2.30;1.80;;;21.70;99.90;;;;;;4991654;28;20447;-64
2023/07/30 11:38:35;;;;;;;4.97;1.93;;;21.60;99.90;;;;;;4991697;28;20534;-63
2023/07/30 11:41:05;;;;;;;2.83;1.73;;;21.20;99.90;;;;;;4991590;28;20443;-63
2023/07/30 11:43:33;;;;;;;1.80;1.70;;;20.90;99.90;;;;;;4991137;28;20867;-63
2023/07/30 11:46:09;;;;;;;3.37;2.23;;;21.70;99.90;;;;;;4994538;28;20474;-63
2023/07/30 11:48:37;;;;;;;2.40;2.20;;;22.50;99.90;;;;;;4977785;28;20964;-63
2023/07/30 11:51:06;;;;;;;2.23;2.10;;;22.80;99.90;;;;;;4997388;28;20457;-63
2023/07/30 11:53:51;;;;;;;2.70;1.97;;;22.80;99.90;;;;;;4979635;28;20463;-63
2023/07/30 11:56:24;;;;;;;2.40;2.20;;;23.00;99.90;;;;;;4985212;28;20451;-63
2023/07/30 11:58:57;;;;;;;2.40;2.20;;;23.20;99.90;;;;;;4973995;28;20536;-63
2023/07/30 12:01:29;;;;;;;2.03;1.67;;;23.50;99.90;;;;;;4980533;28;20454;-63
2023/07/30 12:03:59;;;;;;;3.00;2.47;;;23.40;98.90;;;;;;4973360;28;20498;-64
2023/07/30 12:06:39;;;;;;;1.97;1.87;;;23.30;99.50;;;;;;4969926;28;20476;-64
2023/07/30 12:09:11;;;;;;;1.83;1.73;;;22.90;98.80;;;;;;4977889;28;20981;-64
2023/07/30 12:11:47;;;;;;;3.27;2.07;;;23.50;99.90;;;;;;4977003;28;20914;-64
2023/07/30 12:14:15;;;;;;;3.30;2.10;;;24.20;98.30;;;;;;4972909;28;20576;-64
2023/07/30 12:16:45;;;;;;;2.03;1.83;;;24.30;97.20;;;;;;4984627;28;20440;-63
2023/07/30 12:19:12;;;;;;;1.83;1.73;;;24.40;97.30;;;;;;4969848;28;20478;-64
2023/07/30 12:21:40;;;;;;;3.20;2.70;;;24.40;95.80;;;;;;4982641;28;20509;-64
2023/07/30 12:24:09;;;;;;;2.93;2.17;;;24.60;96.20;;;;;;4975313;28;20542;-64
2023/07/30 12:26:37;;;;;;;3.20;2.10;;;24.70;95.10;;;;;;4988151;28;20574;-64
2023/07/30 12:29:05;;;;;;;4.63;2.33;;;24.50;94.60;;;;;;4981396;28;20439;-64
2023/07/30 12:31:33;;;;;;;3.07;2.20;;;24.40;94.70;;;;;;4980833;28;20526;-65
2023/07/30 12:34:02;;;;;;;2.70;2.47;;;24.30;96.00;;;;;;4986615;28;20462;-64
2023/07/30 12:36:30;;;;;;;2.07;1.97;;;24.10;96.20;;;;;;4979134;28;20542;-64
2023/07/30 12:38:58;;;;;;;2.47;2.00;;;23.90;96.20;;;;;;4985659;28;20527;-64
2023/07/30 12:41:26;;;;;;;2.60;1.90;;;24.40;95.00;;;;;;4984202;28;20906;-64
2023/07/30 12:43:56;;;;;;;5.33;2.00;;;24.40;94.10;;;;;;4979132;28;20797;-64
2023/07/30 12:46:24;;;;;;;3.63;2.13;;;24.50;94.50;;;;;;4990326;28;20565;-65
2023/07/30 12:48:52;;;;;;;3.23;1.97;;;24.80;95.50;;;;;;4991410;28;20454;-65
2023/07/30 12:51:21;;;;;;;2.73;2.13;;;25.40;93.40;;;;;;4981376;28;20845;-64
2023/07/30 12:53:49;;;;;;;3.00;2.37;;;25.40;92.00;;;;;;4972216;28;20468;-64